Ardmore, South Dakota
Current Conditions -  °F | °C
As of 5:53 PM on Saturday 25 Oct 2014 (Local Time) from KCUT Reporting Station
Clear Clear  
Wind Chill: 56°   Ceiling: Unl
Heat Index: 56°   Visibility: 10mi
Dew Point: 36°   Wind: 0mph
Humidity: 47%   Direction: NA
Pressure: 30.04"   Gusts: NA
Location:  43.1994°N, 103.759°W
Report Text: KCUT 252353Z AUTO 00000KT 10SM CLR 13/02 A3004 RMK AO2 SLP153 T01330022 10206 20133 58016
Loading
Personal Weather Stations






























Interactive Weather Map
Tropical Storm Tracking
New forecast layout! Learn more

10-Day Weather Forecast

Advertisements
Track Severe Weather on mobile